Airfield :
LOGIN :

Register | Disclaimer

   EN    FR    IT 

 










Legend :    VFR   Marginal VFR   IFR   Intensive IFR   Very Intensive IFR
Visi :
Ceiling :
>= 8 km
>= 3000ft
5 to 8 km
1000 to 3000 ft
1500m to 5 km
500 to 1000 ft
800 to 1500m
200 to 500 ft
< 800m
< 200 ft
Symbols :   Thunderstorms  Fog  Heavy snow  Heavy precipitations  Wind > 20 kt
SIGMETs :     Misc.  Thunderstorms  Icing  Turbulence  Mountain Waves  Volcanic Ashes







- Airport Elevation : 32 ft
- IATA code : LKZ


EGUL - RAF Lakenheath

CURRENT METAR :
  • 120556Z AUTO 12005KT 9999 OVC042 04/02 A3020 RMK AO2 SLP230 T00440016 10047 20029 55003 $

EXPIRED METARs :
  • 120456Z AUTO 14004KT 9999 OVC040 04/01 A3020 RMK AO2 SLP230 T00440014 $
  • 120356Z AUTO 12007KT 9999 BKN039 OVC150 04/01 A3020 RMK AO2 SLP230 T00410011 $
  • 120256Z AUTO 13004KT 9999 BKN044 OVC150 04/01 A3021 RMK AO2 SLP234 T00440011 53001 $

TAF TAF EGUL
Valid from the 12 at 04:00 until the 13 at 10:00 UTC


120401Z 1204/1310 VRB06KT 9999 BKN040 BKN120 620402 621203 QNH3018INS
BECMG 1208/1209 VRB06KT 9999 BKN020 BKN120 620202 621203 QNH3018INS
BECMG 1212/1213 VRB06KT 9999 SCT020 SCT120 QNH3012INS
BECMG 1221/1222 12010KT 9999 BKN015 620202 QNH3003INS TX08/1213Z TN04/1204Z
No reported NOTAMs for that airfield.



MET'MAP, your aeronautical weather chart ! - Copyright ORBIFLY December 2007 - Disclaimer

ORBIFLY MET'MAP TEAM :

Programming & Development : Alexandra Zaïnal
Concept & Development : Baudouin d'Aumeries
Co-Development & Prog : Marc-Olivier Méhu
Technical & hardware support : Manuel Goepfert

Contact : metmap@orbifly.com




SOURCES & CREDITS :

   NOAA